Time;durP1;ratioP1;P1;durP2;ratioP2;P2;SDS_P1;SDS_P2;PMS_P1;PMS_P2;Temp;Humidity;BMP_temperature;BMP_pressure;BME280_temperature;BME280_humidity;BME280_pressure;Samples;Min_cycle;Max_cycle;Signal;HPM_P1;HPM_P2
2021/11/28 00:02:20;;;;;;;3.17;1.50;;;21.10;50.80;;;;;;5022535;28;20063;-59
2021/11/28 00:04:50;;;;;;;2.15;1.38;;;21.10;50.30;;;;;;5022576;28;20119;-52
2021/11/28 00:07:27;;;;;;;2.47;1.45;;;21.10;50.30;;;;;;5018846;28;20021;-53
2021/11/28 00:14:53;;;;;;;2.47;1.40;;;21.10;50.30;;;;;;5021327;28;20210;-56
2021/11/28 00:17:19;;;;;;;2.72;1.55;;;21.10;50.30;;;;;;5022538;28;20155;-58
2021/11/28 00:19:45;;;;;;;2.50;1.55;;;21.10;50.30;;;;;;5022908;28;20105;-55
2021/11/28 00:22:11;;;;;;;2.58;1.40;;;21.10;50.30;;;;;;5025330;28;20113;-57
2021/11/28 00:24:37;;;;;;;2.80;1.60;;;21.00;50.30;;;;;;5020260;28;20151;-57
2021/11/28 00:27:02;;;;;;;2.08;1.30;;;21.00;50.30;;;;;;5023137;28;20022;-53
2021/11/28 00:29:28;;;;;;;2.50;1.40;;;21.00;50.30;;;;;;5020831;28;20029;-58
2021/11/28 00:31:55;;;;;;;2.53;1.52;;;21.00;50.30;;;;;;5022439;28;20106;-58
2021/11/28 00:34:22;;;;;;;2.20;1.50;;;21.00;50.80;;;;;;5021055;28;20849;-58
2021/11/28 00:36:48;;;;;;;2.47;1.48;;;21.00;50.30;;;;;;5020616;28;20103;-56
2021/11/28 00:39:14;;;;;;;2.65;1.55;;;21.00;50.40;;;;;;5018153;28;20034;-54
2021/11/28 00:41:40;;;;;;;2.53;1.50;;;21.00;50.30;;;;;;5019196;28;20041;-59
2021/11/28 00:44:06;;;;;;;3.38;1.40;;;20.90;50.30;;;;;;5020746;28;20142;-58
2021/11/28 00:46:32;;;;;;;2.20;1.23;;;20.90;50.30;;;;;;5023924;28;20117;-59
2021/11/28 00:49:00;;;;;;;2.83;1.58;;;20.90;50.30;;;;;;5022313;28;20034;-58
2021/11/28 00:54:00;;;;;;;2.17;1.40;;;20.90;50.30;;;;;;5018564;28;20125;-54
2021/11/28 00:56:26;;;;;;;2.95;1.50;;;20.90;50.40;;;;;;5020084;28;20044;-56
2021/11/28 00:58:52;;;;;;;2.72;1.50;;;20.90;50.30;;;;;;5020434;28;20041;-53
2021/11/28 01:01:18;;;;;;;2.40;1.45;;;20.90;50.30;;;;;;5024111;28;20041;-58
2021/11/28 01:03:44;;;;;;;2.30;1.40;;;20.90;50.30;;;;;;5022270;28;20067;-58
2021/11/28 01:06:10;;;;;;;1.98;1.27;;;20.80;50.30;;;;;;5020606;28;20038;-58
2021/11/28 01:08:36;;;;;;;2.50;1.40;;;20.80;50.30;;;;;;5020769;28;20022;-55
2021/11/28 01:11:02;;;;;;;2.38;1.30;;;20.80;50.40;;;;;;5022577;28;20308;-57
2021/11/28 01:13:28;;;;;;;3.38;1.35;;;20.80;50.40;;;;;;5021867;28;20735;-58
2021/11/28 01:15:53;;;;;;;2.20;1.40;;;20.80;50.40;;;;;;5023582;28;20035;-57
2021/11/28 01:18:19;;;;;;;2.20;1.30;;;20.80;50.40;;;;;;5022683;28;20029;-55
2021/11/28 01:20:44;;;;;;;2.08;1.30;;;20.80;50.40;;;;;;5020846;28;20315;-58
2021/11/28 01:23:10;;;;;;;2.63;1.40;;;20.80;50.40;;;;;;5021525;28;20075;-52
2021/11/28 01:25:36;;;;;;;2.10;1.33;;;20.80;50.40;;;;;;5019946;28;20374;-54
2021/11/28 01:28:02;;;;;;;2.67;1.40;;;20.70;50.90;;;;;;5021367;28;20196;-53
2021/11/28 01:30:28;;;;;;;3.17;1.50;;;20.80;50.40;;;;;;5022660;28;20225;-57
2021/11/28 01:32:54;;;;;;;3.00;1.35;;;20.70;50.40;;;;;;5023002;28;20060;-57
2021/11/28 01:35:19;;;;;;;2.30;1.50;;;20.70;50.40;;;;;;5024656;28;20041;-56
2021/11/28 01:37:46;;;;;;;2.00;1.38;;;20.70;50.40;;;;;;5025877;28;20116;-60
2021/11/28 01:40:16;;;;;;;2.05;1.40;;;20.70;50.40;;;;;;5021296;28;20496;-57
2021/11/28 01:42:46;;;;;;;1.92;1.38;;;20.70;50.40;;;;;;5025279;28;20112;-55
2021/11/28 01:45:18;;;;;;;2.40;1.50;;;20.70;50.40;;;;;;5027494;28;20355;-59
2021/11/28 01:47:44;;;;;;;2.55;1.50;;;20.70;50.40;;;;;;5021142;28;20104;-58
2021/11/28 01:50:11;;;;;;;2.50;1.50;;;20.70;50.40;;;;;;5025177;28;20042;-58
2021/11/28 01:52:37;;;;;;;2.20;1.50;;;20.70;50.40;;;;;;5026658;28;20708;-58
2021/11/28 01:55:13;;;;;;;3.10;1.60;;;20.60;50.30;;;;;;5021560;28;20135;-57
2021/11/28 01:57:39;;;;;;;2.83;1.52;;;20.70;50.40;;;;;;5024737;28;20033;-57
2021/11/28 02:00:11;;;;;;;3.05;1.40;;;20.60;50.40;;;;;;5024900;28;20025;-57
2021/11/28 02:02:38;;;;;;;2.10;1.30;;;20.60;50.30;;;;;;5024499;28;20041;-57
2021/11/28 02:05:04;;;;;;;2.30;1.50;;;20.60;50.30;;;;;;5022262;28;20117;-57
2021/11/28 02:07:30;;;;;;;2.28;1.50;;;20.60;50.30;;;;;;5026604;28;20041;-56
2021/11/28 02:09:56;;;;;;;2.45;1.30;;;20.60;50.30;;;;;;5021499;28;20060;-57
2021/11/28 02:12:29;;;;;;;2.17;1.30;;;20.60;50.40;;;;;;5023349;28;20432;-57
2021/11/28 02:14:56;;;;;;;2.63;1.45;;;20.60;50.40;;;;;;5026336;28;20337;-57
2021/11/28 02:17:22;;;;;;;1.70;1.25;;;20.60;50.40;;;;;;5025975;28;20078;-56
2021/11/28 02:19:47;;;;;;;2.00;1.20;;;20.50;50.30;;;;;;5024285;28;20060;-55
2021/11/28 02:22:13;;;;;;;2.35;1.45;;;20.50;50.30;;;;;;5025975;28;20107;-58
2021/11/28 02:24:39;;;;;;;1.90;1.20;;;20.50;50.30;;;;;;5019706;28;20045;-55
2021/11/28 02:27:05;;;;;;;2.42;1.55;;;20.50;50.40;;;;;;5022493;28;20045;-59
2021/11/28 02:29:31;;;;;;;2.28;1.30;;;20.50;50.40;;;;;;5025085;28;20393;-58
2021/11/28 02:31:56;;;;;;;2.80;1.45;;;20.50;50.40;;;;;;5025464;28;20054;-56
2021/11/28 02:34:23;;;;;;;2.13;1.40;;;20.50;50.40;;;;;;5023194;28;20034;-57
2021/11/28 02:36:53;;;;;;;1.77;1.27;;;20.50;50.40;;;;;;5020958;28;20045;-58
2021/11/28 02:39:20;;;;;;;3.20;1.30;;;20.50;50.40;;;;;;5023755;28;20117;-54
2021/11/28 02:41:46;;;;;;;2.00;1.30;;;20.50;50.40;;;;;;5024083;28;20037;-59
2021/11/28 02:44:13;;;;;;;2.55;1.50;;;20.40;50.30;;;;;;5018748;28;20052;-57
2021/11/28 02:46:39;;;;;;;2.30;1.40;;;20.40;50.40;;;;;;5023901;28;20034;-58
2021/11/28 02:49:05;;;;;;;2.00;1.30;;;20.40;50.40;;;;;;5023398;28;20083;-58
2021/11/28 02:51:34;;;;;;;1.80;1.23;;;20.40;50.40;;;;;;5024082;28;20021;-58
2021/11/28 02:54:00;;;;;;;2.53;1.40;;;20.40;50.40;;;;;;5021845;28;20042;-56
2021/11/28 02:56:26;;;;;;;2.30;1.38;;;20.40;50.40;;;;;;5023854;28;20472;-60
2021/11/28 02:58:51;;;;;;;2.28;1.25;;;20.40;50.40;;;;;;5017177;28;20026;-59
2021/11/28 03:01:19;;;;;;;2.17;1.30;;;20.40;50.40;;;;;;5024865;28;20041;-55
2021/11/28 03:03:45;;;;;;;1.90;1.20;;;20.40;50.40;;;;;;5025109;28;20492;-57
2021/11/28 03:06:11;;;;;;;2.40;1.20;;;20.40;50.40;;;;;;5025332;28;20038;-56
2021/11/28 03:08:38;;;;;;;2.15;1.42;;;20.30;50.40;;;;;;5024228;28;20032;-58
2021/11/28 03:11:04;;;;;;;2.63;1.30;;;20.30;50.40;;;;;;5023336;28;20109;-53
2021/11/28 03:13:32;;;;;;;2.28;1.40;;;20.40;50.40;;;;;;5021711;28;20021;-56
2021/11/28 03:16:02;;;;;;;2.33;1.30;;;20.30;50.40;;;;;;5022575;28;20116;-58
2021/11/28 03:18:29;;;;;;;2.15;1.17;;;20.30;50.40;;;;;;5026498;28;20476;-57
2021/11/28 03:21:00;;;;;;;2.10;1.20;;;20.40;50.40;;;;;;5023544;28;20049;-58
2021/11/28 03:23:29;;;;;;;2.20;1.20;;;20.30;50.40;;;;;;5021507;28;20033;-56
2021/11/28 03:26:23;;;;;;;2.07;1.20;;;20.30;50.40;;;;;;5021906;28;20075;-55
2021/11/28 03:28:50;;;;;;;2.22;1.30;;;20.30;50.40;;;;;;5023075;28;20022;-58
2021/11/28 03:31:16;;;;;;;3.33;1.40;;;20.30;50.50;;;;;;5022993;28;20041;-58
2021/11/28 03:33:42;;;;;;;2.45;1.23;;;20.30;50.40;;;;;;5025606;28;20037;-55
2021/11/28 03:36:09;;;;;;;2.35;1.38;;;20.30;50.50;;;;;;5022103;28;20042;-58
2021/11/28 03:38:36;;;;;;;2.33;1.30;;;20.30;50.50;;;;;;5021819;28;20041;-57
2021/11/28 03:41:01;;;;;;;1.60;1.20;;;20.30;50.50;;;;;;5019042;28;20116;-57
2021/11/28 03:43:27;;;;;;;1.67;1.20;;;20.30;50.50;;;;;;5023825;28;20148;-56
2021/11/28 03:45:53;;;;;;;1.67;1.17;;;20.30;50.50;;;;;;5022840;28;20804;-58
2021/11/28 03:48:19;;;;;;;2.22;1.15;;;20.30;50.50;;;;;;5025188;28;20044;-58
2021/11/28 03:50:44;;;;;;;2.08;1.20;;;20.20;50.50;;;;;;5023309;28;20025;-55
2021/11/28 03:53:11;;;;;;;2.20;1.40;;;20.20;50.50;;;;;;5022860;28;20040;-58
2021/11/28 03:55:37;;;;;;;2.05;1.20;;;20.20;50.50;;;;;;5017841;28;20497;-55
2021/11/28 03:58:04;;;;;;;2.10;1.20;;;20.20;50.50;;;;;;5022348;28;20048;-56
2021/11/28 04:00:30;;;;;;;2.15;1.35;;;20.20;50.60;;;;;;5020035;28;20034;-55
2021/11/28 04:02:55;;;;;;;1.83;1.15;;;20.20;50.60;;;;;;5025923;28;20515;-56
2021/11/28 04:05:21;;;;;;;2.20;1.30;;;20.20;50.60;;;;;;5021586;28;20405;-59
2021/11/28 04:07:47;;;;;;;1.45;1.00;;;20.20;50.60;;;;;;5024769;28;20548;-57
2021/11/28 04:10:13;;;;;;;1.58;1.10;;;20.20;50.60;;;;;;5020871;28;20026;-58
2021/11/28 04:12:39;;;;;;;1.55;1.00;;;20.20;50.60;;;;;;5022831;28;20033;-59
2021/11/28 04:15:06;;;;;;;1.90;1.20;;;20.20;50.60;;;;;;5020260;28;20030;-55
2021/11/28 04:17:33;;;;;;;1.58;1.02;;;20.10;50.60;;;;;;5024444;28;20444;-59
2021/11/28 04:19:59;;;;;;;1.58;1.05;;;20.10;50.60;;;;;;5024097;28;20037;-58
2021/11/28 04:22:25;;;;;;;1.52;1.08;;;20.10;51.10;;;;;;5024695;28;20466;-58
2021/11/28 04:24:52;;;;;;;1.63;1.10;;;20.10;51.10;;;;;;5019676;28;20044;-59
2021/11/28 04:27:17;;;;;;;1.75;1.10;;;20.10;50.70;;;;;;5023545;28;20040;-59
2021/11/28 04:29:43;;;;;;;2.13;1.27;;;20.10;50.70;;;;;;5021975;28;20017;-58
2021/11/28 04:32:09;;;;;;;1.75;1.20;;;20.10;50.70;;;;;;5024173;28;20140;-56
2021/11/28 04:34:34;;;;;;;2.03;1.20;;;20.10;50.70;;;;;;5023505;28;20049;-58
2021/11/28 04:37:00;;;;;;;1.60;1.00;;;20.10;50.70;;;;;;5025106;28;20040;-58
2021/11/28 04:39:26;;;;;;;1.67;1.05;;;20.10;50.70;;;;;;5019757;28;20910;-52
2021/11/28 04:41:51;;;;;;;1.83;1.13;;;20.10;50.80;;;;;;5022280;28;20042;-58
2021/11/28 04:44:17;;;;;;;1.42;1.08;;;20.10;50.80;;;;;;5022373;28;20052;-57
2021/11/28 04:46:43;;;;;;;1.48;1.10;;;20.10;50.80;;;;;;5021826;28;20096;-55
2021/11/28 04:49:09;;;;;;;1.70;1.15;;;20.10;50.80;;;;;;5020153;28;20102;-57
2021/11/28 04:51:35;;;;;;;1.70;1.05;;;20.00;50.80;;;;;;5023574;28;20882;-56
2021/11/28 04:54:02;;;;;;;1.90;1.10;;;20.00;50.80;;;;;;5018797;28;20041;-57
2021/11/28 04:56:28;;;;;;;1.40;1.00;;;20.00;50.90;;;;;;5022448;28;20405;-54
2021/11/28 04:58:54;;;;;;;1.95;1.13;;;20.00;50.90;;;;;;5021599;28;20033;-59
2021/11/28 05:01:21;;;;;;;1.58;1.05;;;20.00;50.90;;;;;;5023892;28;20041;-59
2021/11/28 05:03:48;;;;;;;1.73;1.20;;;20.00;50.90;;;;;;5023988;28;20559;-54
2021/11/28 05:06:14;;;;;;;1.85;1.20;;;20.00;50.90;;;;;;5024689;28;20026;-57
2021/11/28 05:08:40;;;;;;;1.80;1.10;;;20.00;51.00;;;;;;5023746;28;20033;-55
2021/11/28 05:11:05;;;;;;;1.77;1.10;;;20.00;50.90;;;;;;5025902;28;20033;-58
2021/11/28 05:13:31;;;;;;;1.60;1.08;;;20.00;51.00;;;;;;5025505;28;20029;-57
2021/11/28 05:15:56;;;;;;;2.05;1.10;;;20.00;51.00;;;;;;5026260;28;20036;-59
2021/11/28 05:18:22;;;;;;;1.70;1.10;;;20.00;51.00;;;;;;5026747;28;20041;-56
2021/11/28 05:20:49;;;;;;;1.75;1.05;;;19.90;51.00;;;;;;5026318;28;20097;-58
2021/11/28 05:23:15;;;;;;;1.42;1.00;;;19.90;51.00;;;;;;5024992;28;20126;-59
2021/11/28 05:25:40;;;;;;;2.00;1.20;;;19.90;51.00;;;;;;5021346;28;20053;-55
2021/11/28 05:28:08;;;;;;;1.38;0.90;;;19.90;51.00;;;;;;5026721;28;20068;-58
2021/11/28 05:30:35;;;;;;;1.73;1.10;;;19.90;51.10;;;;;;5027046;28;20029;-55
2021/11/28 05:33:01;;;;;;;1.52;1.20;;;19.90;51.10;;;;;;5025677;28;20033;-58
2021/11/28 05:35:27;;;;;;;1.65;1.10;;;19.90;51.10;;;;;;5025946;28;20035;-58
2021/11/28 05:37:53;;;;;;;1.52;1.05;;;19.90;51.10;;;;;;5027575;28;20715;-54
2021/11/28 05:40:19;;;;;;;1.98;1.10;;;19.90;51.10;;;;;;5022264;28;20033;-55
2021/11/28 05:42:48;;;;;;;1.73;0.95;;;19.90;51.10;;;;;;5024324;28;20100;-54
2021/11/28 05:45:14;;;;;;;;;;;19.90;51.10;;;;;;5025338;28;20374;-59
2021/11/28 05:47:40;;;;;;;1.23;0.90;;;19.90;51.10;;;;;;5026019;28;19913;-57
2021/11/28 05:50:06;;;;;;;1.10;0.80;;;19.90;51.10;;;;;;5025770;28;20022;-54
2021/11/28 05:52:32;;;;;;;1.65;1.00;;;19.90;51.10;;;;;;5025541;28;20060;-57
2021/11/28 05:54:57;;;;;;;1.38;0.90;;;19.90;51.10;;;;;;5025400;28;20080;-58
2021/11/28 05:57:23;;;;;;;1.77;1.10;;;19.90;51.10;;;;;;5024844;28;20033;-56
2021/11/28 05:59:49;;;;;;;1.58;1.00;;;19.80;51.60;;;;;;5027091;28;20044;-58
2021/11/28 06:02:15;;;;;;;1.77;1.10;;;19.80;51.10;;;;;;5021145;28;20038;-56
2021/11/28 06:04:40;;;;;;;1.70;1.00;;;19.80;51.10;;;;;;5025197;28;20041;-56
2021/11/28 06:07:06;;;;;;;1.75;0.90;;;19.80;51.10;;;;;;5022459;28;20026;-55
2021/11/28 06:09:31;;;;;;;1.42;0.98;;;19.90;51.20;;;;;;5023662;28;20032;-57
2021/11/28 06:11:57;;;;;;;1.40;1.00;;;19.80;51.10;;;;;;5023867;28;20439;-59
2021/11/28 06:14:23;;;;;;;1.38;1.02;;;19.80;51.10;;;;;;5027171;28;20033;-59
2021/11/28 06:16:48;;;;;;;1.10;0.90;;;19.90;51.20;;;;;;5026528;28;20056;-58
2021/11/28 06:19:14;;;;;;;1.30;0.98;;;19.80;51.20;;;;;;5024280;28;20135;-58
2021/11/28 06:21:40;;;;;;;1.55;1.10;;;19.80;51.20;;;;;;5024960;28;20095;-59
2021/11/28 06:24:05;;;;;;;1.27;0.90;;;19.80;51.10;;;;;;5024564;28;20041;-59
2021/11/28 06:26:31;;;;;;;1.30;0.80;;;19.80;51.20;;;;;;5022274;28;20494;-56
2021/11/28 06:28:57;;;;;;;1.45;1.02;;;19.80;51.20;;;;;;5024465;28;20100;-57
2021/11/28 06:31:22;;;;;;;1.52;1.00;;;19.80;51.20;;;;;;5025478;28;20041;-57
2021/11/28 06:33:48;;;;;;;1.05;0.80;;;19.80;51.20;;;;;;5023053;28;20172;-59
2021/11/28 06:36:14;;;;;;;1.25;0.90;;;19.80;51.20;;;;;;5023421;28;20029;-57
2021/11/28 06:38:40;;;;;;;1.05;0.90;;;19.80;51.20;;;;;;5022466;28;20055;-58
2021/11/28 06:41:06;;;;;;;1.40;1.00;;;19.80;51.20;;;;;;5017605;28;20041;-58
2021/11/28 06:43:31;;;;;;;1.30;1.00;;;19.80;51.20;;;;;;5024225;28;20029;-58
2021/11/28 06:45:57;;;;;;;1.38;0.88;;;19.80;51.20;;;;;;5023427;28;20099;-53
2021/11/28 06:48:23;;;;;;;1.30;0.90;;;19.80;51.20;;;;;;5019342;28;20041;-56
2021/11/28 06:50:49;;;;;;;1.15;0.88;;;19.80;51.20;;;;;;5021045;28;20496;-57
2021/11/28 06:53:16;;;;;;;1.55;0.95;;;19.80;51.20;;;;;;5023448;28;20021;-53
2021/11/28 06:55:42;;;;;;;1.40;1.00;;;19.80;51.20;;;;;;5017814;28;20038;-58
2021/11/28 06:58:07;;;;;;;0.93;0.82;;;19.80;51.20;;;;;;5034143;28;20040;-56
2021/11/28 07:00:33;;;;;;;1.13;0.80;;;19.80;51.20;;;;;;5023232;28;20044;-59
2021/11/28 07:02:59;;;;;;;1.27;0.88;;;19.80;51.20;;;;;;5025472;28;20039;-56
2021/11/28 07:05:25;;;;;;;1.30;0.90;;;19.80;51.20;;;;;;5025443;28;20021;-59
2021/11/28 07:07:50;;;;;;;1.67;0.90;;;19.80;51.30;;;;;;5023935;28;20479;-59
2021/11/28 07:10:16;;;;;;;1.45;0.90;;;19.80;51.30;;;;;;5023680;28;20092;-59
2021/11/28 07:12:43;;;;;;;1.33;0.90;;;19.80;51.30;;;;;;5024616;28;20444;-56
2021/11/28 07:15:10;;;;;;;1.00;0.80;;;19.80;51.80;;;;;;5024363;28;20113;-56
2021/11/28 07:17:36;;;;;;;1.30;0.93;;;19.80;51.30;;;;;;5025268;28;20021;-55
2021/11/28 07:20:03;;;;;;;1.50;1.13;;;19.80;51.30;;;;;;5019993;28;21014;-56
2021/11/28 07:22:30;;;;;;;1.48;1.00;;;19.80;51.30;;;;;;5019628;28;20028;-57
2021/11/28 07:24:56;;;;;;;1.23;0.98;;;19.80;51.30;;;;;;5022877;28;20037;-59
2021/11/28 07:27:21;;;;;;;1.42;0.90;;;19.80;51.30;;;;;;5018979;28;20084;-53
2021/11/28 07:29:47;;;;;;;1.33;0.90;;;19.80;51.40;;;;;;5021078;28;20025;-55
2021/11/28 07:32:13;;;;;;;1.23;0.90;;;19.80;51.40;;;;;;5023051;28;20037;-59
2021/11/28 07:34:38;;;;;;;1.90;1.10;;;19.70;51.30;;;;;;5021930;28;20021;-56
2021/11/28 07:37:04;;;;;;;1.33;0.88;;;19.80;51.40;;;;;;5022890;28;20029;-55
2021/11/28 07:39:30;;;;;;;1.77;1.10;;;19.70;51.40;;;;;;5021172;28;20038;-56
2021/11/28 07:41:56;;;;;;;1.67;1.00;;;19.80;51.40;;;;;;5017958;28;20614;-58
2021/11/28 07:44:21;;;;;;;1.40;0.90;;;19.70;51.40;;;;;;5022418;28;20041;-58
2021/11/28 07:46:47;;;;;;;1.65;0.93;;;19.70;51.40;;;;;;5023555;28;20056;-58
2021/11/28 07:49:13;;;;;;;1.67;0.98;;;19.70;51.40;;;;;;5018594;28;20060;-58
2021/11/28 07:51:39;;;;;;;1.13;0.88;;;19.70;51.40;;;;;;5022185;28;20514;-57
2021/11/28 07:54:06;;;;;;;2.33;0.90;;;19.70;51.50;;;;;;5016426;28;20115;-54
2021/11/28 07:56:32;;;;;;;1.67;1.10;;;19.70;51.50;;;;;;5021237;28;20033;-56
2021/11/28 07:58:58;;;;;;;1.05;0.80;;;19.70;51.50;;;;;;5023634;28;20489;-54
2021/11/28 08:01:24;;;;;;;1.80;1.00;;;19.70;51.50;;;;;;5023204;28;20080;-57
2021/11/28 08:03:50;;;;;;;1.33;0.90;;;19.70;51.50;;;;;;5020583;28;20049;-59
2021/11/28 08:06:16;;;;;;;2.00;1.05;;;19.70;51.50;;;;;;5019276;28;20427;-57
2021/11/28 08:08:42;;;;;;;1.67;1.20;;;19.70;51.50;;;;;;5021742;28;20048;-59
2021/11/28 08:11:08;;;;;;;1.65;1.00;;;19.70;51.50;;;;;;5021211;28;20037;-57
2021/11/28 08:13:34;;;;;;;2.40;1.30;;;19.70;51.50;;;;;;5020316;28;20530;-58
2021/11/28 08:15:59;;;;;;;1.98;1.10;;;19.70;51.50;;;;;;5020693;28;20043;-52
2021/11/28 08:18:25;;;;;;;1.48;1.17;;;19.70;51.60;;;;;;5022947;28;20045;-56
2021/11/28 08:20:51;;;;;;;2.35;1.00;;;19.70;51.60;;;;;;5024732;28;20095;-55
2021/11/28 08:23:17;;;;;;;2.42;1.00;;;19.70;51.60;;;;;;5019996;28;20092;-55
2021/11/28 08:25:42;;;;;;;1.60;1.00;;;19.70;51.60;;;;;;5016974;28;20498;-53
2021/11/28 08:28:08;;;;;;;1.83;1.15;;;19.70;51.60;;;;;;5021950;28;20026;-55
2021/11/28 08:30:36;;;;;;;1.92;1.00;;;19.70;51.60;;;;;;5017730;28;20083;-55
2021/11/28 08:33:03;;;;;;;1.48;1.00;;;19.70;51.60;;;;;;5022410;28;20048;-56
2021/11/28 08:35:29;;;;;;;1.70;1.00;;;19.70;51.60;;;;;;5022947;28;20174;-59
2021/11/28 08:37:56;;;;;;;2.20;1.10;;;19.70;51.60;;;;;;5023094;28;20551;-56
2021/11/28 08:40:23;;;;;;;1.55;1.10;;;19.70;51.60;;;;;;5020130;28;20128;-58
2021/11/28 08:42:49;;;;;;;1.90;1.10;;;19.70;51.60;;;;;;5027544;28;20026;-58
2021/11/28 08:45:16;;;;;;;1.92;1.10;;;19.70;51.70;;;;;;5023012;28;20041;-55
2021/11/28 08:47:43;;;;;;;1.67;0.98;;;19.70;51.60;;;;;;5027698;28;20044;-58
2021/11/28 08:50:10;;;;;;;1.90;1.10;;;19.70;51.70;;;;;;5023260;28;20778;-57
2021/11/28 08:52:36;;;;;;;2.10;1.20;;;19.70;51.70;;;;;;5025199;28;20029;-57
2021/11/28 08:55:05;;;;;;;1.90;1.10;;;19.70;51.70;;;;;;5020510;28;20044;-55
2021/11/28 08:57:30;;;;;;;2.03;1.15;;;19.60;51.60;;;;;;5025831;28;20047;-56
2021/11/28 08:59:56;;;;;;;1.85;1.17;;;19.70;51.70;;;;;;5024593;28;20022;-56
2021/11/28 09:02:21;;;;;;;1.92;1.08;;;19.70;51.70;;;;;;5025893;28;20509;-56
2021/11/28 09:04:47;;;;;;;1.67;1.10;;;19.60;51.70;;;;;;5023875;28;20092;-59
2021/11/28 09:07:13;;;;;;;1.73;1.10;;;19.70;51.70;;;;;;5026944;28;20536;-55
2021/11/28 09:09:39;;;;;;;2.25;1.10;;;19.70;51.70;;;;;;5023827;28;20029;-56
2021/11/28 09:12:06;;;;;;;1.75;1.00;;;19.60;51.70;;;;;;5024554;28;20462;-59
2021/11/28 09:14:32;;;;;;;2.08;1.10;;;19.60;51.70;;;;;;5024770;28;20036;-57
2021/11/28 09:16:57;;;;;;;1.95;1.15;;;19.60;51.70;;;;;;5025707;28;20121;-58
2021/11/28 09:19:40;;;;;;;1.95;1.15;;;19.60;51.70;;;;;;5022663;28;20098;-58
2021/11/28 09:22:07;;;;;;;2.17;1.20;;;19.60;51.70;;;;;;5024503;28;20041;-57
2021/11/28 09:24:40;;;;;;;1.70;1.10;;;19.60;51.70;;;;;;5026855;28;20136;-57
2021/11/28 09:27:13;;;;;;;1.58;1.05;;;19.60;51.70;;;;;;5022136;28;20030;-55
2021/11/28 09:29:44;;;;;;;1.55;0.95;;;19.60;51.70;;;;;;5021297;28;20057;-58
2021/11/28 09:32:15;;;;;;;3.47;1.20;;;19.60;51.70;;;;;;5020014;28;20038;-55
2021/11/28 09:34:41;;;;;;;1.75;1.00;;;19.60;51.80;;;;;;5019110;28;21068;-58
2021/11/28 09:37:11;;;;;;;1.95;1.13;;;19.60;51.70;;;;;;5026135;28;20033;-60
2021/11/28 09:39:38;;;;;;;2.05;1.10;;;19.60;51.70;;;;;;5020444;28;21017;-56
2021/11/28 09:42:07;;;;;;;2.35;1.20;;;19.60;51.70;;;;;;5023147;28;20040;-58
2021/11/28 09:44:36;;;;;;;2.13;1.15;;;19.60;51.80;;;;;;5026068;28;20389;-57
2021/11/28 09:47:04;;;;;;;1.70;1.00;;;19.60;51.80;;;;;;5023472;28;20025;-55
2021/11/28 09:49:31;;;;;;;2.10;1.20;;;19.60;51.80;;;;;;5025214;28;20367;-56
2021/11/28 09:52:03;;;;;;;2.25;1.33;;;19.60;51.80;;;;;;5025062;28;20029;-58
2021/11/28 09:54:31;;;;;;;1.42;1.00;;;19.60;51.80;;;;;;5023257;28;20586;-58
2021/11/28 09:56:57;;;;;;;2.00;1.00;;;19.60;51.90;;;;;;5024299;28;20037;-55
2021/11/28 09:59:22;;;;;;;2.35;1.10;;;19.60;51.80;;;;;;5024469;28;20041;-58
2021/11/28 10:01:49;;;;;;;1.73;1.00;;;19.60;51.90;;;;;;5023320;28;20047;-58
2021/11/28 10:04:16;;;;;;;2.00;1.10;;;19.60;51.90;;;;;;5021336;28;20438;-58
2021/11/28 10:06:42;;;;;;;2.00;1.10;;;19.60;51.90;;;;;;5024991;28;20026;-58
2021/11/28 10:09:08;;;;;;;2.15;1.20;;;19.60;51.90;;;;;;5022763;28;20045;-59
2021/11/28 10:11:40;;;;;;;1.67;1.10;;;19.60;51.90;;;;;;5021725;28;20063;-58
2021/11/28 10:14:08;;;;;;;2.28;1.13;;;19.60;52.00;;;;;;5020933;28;20136;-57
2021/11/28 10:16:34;;;;;;;1.73;1.10;;;19.60;51.90;;;;;;5019769;28;20030;-58
2021/11/28 10:19:00;;;;;;;2.28;1.20;;;19.60;51.90;;;;;;5024595;28;20798;-59
2021/11/28 10:21:27;;;;;;;1.85;1.10;;;19.60;51.90;;;;;;5026720;28;20041;-57
2021/11/28 10:24:14;;;;;;;2.08;1.20;;;19.60;52.00;;;;;;5022133;28;20040;-58
2021/11/28 10:26:56;;;;;;;1.52;1.00;;;19.60;52.50;;;;;;5020326;28;20025;-57
2021/11/28 10:29:26;;;;;;;1.73;1.02;;;19.50;51.90;;;;;;5019249;28;20040;-57
2021/11/28 10:31:54;;;;;;;1.88;1.20;;;19.60;52.00;;;;;;5023433;28;20421;-58
2021/11/28 10:34:23;;;;;;;2.08;1.10;;;19.60;52.00;;;;;;5025323;28;20032;-58
2021/11/28 10:36:51;;;;;;;1.73;1.05;;;19.60;52.00;;;;;;5022617;28;20048;-57
2021/11/28 10:39:21;;;;;;;2.97;1.20;;;19.50;52.00;;;;;;5019897;28;20112;-57
2021/11/28 10:41:56;;;;;;;1.95;1.13;;;19.60;52.00;;;;;;5021326;28;20675;-57
2021/11/28 10:44:24;;;;;;;1.92;1.10;;;19.60;52.00;;;;;;5024924;28;20042;-55
2021/11/28 10:46:51;;;;;;;2.65;1.35;;;19.60;52.10;;;;;;5021209;28;20038;-55
2021/11/28 10:49:20;;;;;;;2.25;1.20;;;19.60;52.10;;;;;;5023360;28;20075;-58
2021/11/28 10:51:48;;;;;;;2.28;1.15;;;19.60;52.10;;;;;;5023647;28;20060;-58
2021/11/28 10:54:36;;;;;;;2.10;1.20;;;19.60;52.10;;;;;;5020038;28;20133;-58
2021/11/28 10:57:08;;;;;;;1.25;0.90;;;19.50;52.10;;;;;;5021670;28;20042;-57
2021/11/28 10:59:35;;;;;;;1.73;1.00;;;19.50;52.10;;;;;;5020687;28;20485;-57
2021/11/28 11:02:17;;;;;;;1.95;1.10;;;19.60;52.20;;;;;;5018604;28;20076;-58
2021/11/28 11:04:43;;;;;;;2.20;1.00;;;19.50;52.10;;;;;;5019509;28;20038;-58
2021/11/28 11:07:13;;;;;;;2.63;1.10;;;19.50;52.20;;;;;;5023335;28;20036;-54
2021/11/28 11:09:49;;;;;;;2.63;1.27;;;19.50;52.20;;;;;;5022097;28;20018;-55
2021/11/28 11:12:20;;;;;;;2.03;1.00;;;19.50;52.20;;;;;;5024194;28;20029;-56
2021/11/28 11:14:47;;;;;;;1.33;0.90;;;19.50;52.40;;;;;;5022466;28;20037;-59
2021/11/28 11:17:13;;;;;;;1.80;0.98;;;19.50;52.50;;;;;;5021997;28;20030;-57
2021/11/28 11:19:47;;;;;;;2.47;1.30;;;19.60;52.90;;;;;;5020386;28;20163;-59
2021/11/28 11:22:25;;;;;;;2.00;1.20;;;19.50;53.10;;;;;;5022686;28;20662;-59
2021/11/28 11:25:00;;;;;;;2.20;1.20;;;19.60;53.50;;;;;;5026042;28;22186;-57
2021/11/28 11:27:36;;;;;;;2.25;1.20;;;19.60;53.30;;;;;;5025003;28;20029;-58
2021/11/28 11:30:07;;;;;;;2.78;1.30;;;19.50;53.20;;;;;;5025965;28;20068;-56
2021/11/28 11:33:10;;;;;;;2.33;1.20;;;19.50;53.20;;;;;;5025563;28;20060;-58
2021/11/28 11:35:41;;;;;;;2.28;1.20;;;19.60;53.40;;;;;;5023862;28;20179;-56
2021/11/28 11:38:13;;;;;;;2.28;1.20;;;19.50;53.40;;;;;;5027419;28;20088;-59
2021/11/28 11:40:40;;;;;;;3.13;1.30;;;19.50;53.50;;;;;;5021853;28;20032;-59
2021/11/28 11:43:06;;;;;;;2.38;1.20;;;19.50;53.50;;;;;;5026765;28;20503;-58
2021/11/28 11:45:35;;;;;;;2.50;1.30;;;19.60;53.60;;;;;;5026772;28;20029;-58
2021/11/28 11:48:03;;;;;;;3.15;1.45;;;19.50;53.60;;;;;;5025764;28;20523;-58
2021/11/28 11:50:29;;;;;;;3.13;1.40;;;19.50;53.60;;;;;;5026121;28;20126;-58
2021/11/28 11:52:54;;;;;;;2.22;1.20;;;19.60;53.70;;;;;;5024323;28;20083;-59
2021/11/28 11:55:24;;;;;;;2.78;1.40;;;19.60;53.70;;;;;;5022789;28;20136;-58
2021/11/28 11:58:25;;;;;;;2.60;1.30;;;19.60;53.80;;;;;;5022658;28;20496;-57
2021/11/28 12:00:57;;;;;;;1.98;1.17;;;19.50;53.90;;;;;;5022521;28;20901;-54
2021/11/28 12:03:23;;;;;;;3.28;1.50;;;19.50;53.80;;;;;;5027321;28;20049;-59
2021/11/28 12:05:51;;;;;;;2.85;1.45;;;19.50;53.90;;;;;;5024067;28;20029;-59
2021/11/28 12:08:17;;;;;;;1.95;1.20;;;19.50;54.00;;;;;;5019754;28;20099;-59
2021/11/28 12:10:43;;;;;;;2.85;1.38;;;19.60;54.10;;;;;;5017122;28;20021;-58
2021/11/28 12:13:33;;;;;;;1.92;1.38;;;19.60;54.10;;;;;;5021044;28;20571;-58
2021/11/28 12:16:08;;;;;;;3.35;1.45;;;19.60;54.10;;;;;;5016424;28;20052;-58
2021/11/28 12:18:33;;;;;;;3.10;1.50;;;19.60;54.20;;;;;;5020680;28;20502;-57
2021/11/28 12:21:07;;;;;;;2.92;1.40;;;19.50;54.10;;;;;;5021320;28;20069;-58
2021/11/28 12:24:11;;;;;;;2.33;1.25;;;19.60;54.20;;;;;;5022658;28;20079;-57
2021/11/28 12:26:47;;;;;;;4.05;1.40;;;19.50;54.30;;;;;;5017072;28;20065;-58
2021/11/28 12:29:16;;;;;;;3.47;1.50;;;19.60;54.20;;;;;;5019541;28;20036;-57
2021/11/28 12:31:48;;;;;;;3.50;1.70;;;19.60;54.20;;;;;;5019048;28;20122;-58
2021/11/28 12:34:16;;;;;;;2.55;1.45;;;19.60;54.20;;;;;;5022770;28;20049;-58
2021/11/28 12:36:59;;;;;;;3.08;1.42;;;19.60;54.20;;;;;;5022958;28;20045;-57
2021/11/28 12:39:25;;;;;;;2.65;1.30;;;19.60;54.30;;;;;;5022692;28;20036;-58
2021/11/28 12:42:01;;;;;;;3.35;1.40;;;19.60;54.20;;;;;;5017293;28;20040;-56
2021/11/28 12:44:43;;;;;;;2.97;1.48;;;19.60;54.30;;;;;;5022505;28;20045;-58
2021/11/28 12:47:09;;;;;;;3.92;1.65;;;19.50;54.10;;;;;;5017930;28;20030;-57
2021/11/28 12:50:02;;;;;;;4.25;1.90;;;19.50;54.10;;;;;;5015300;28;20034;-59
2021/11/28 12:52:32;;;;;;;4.50;1.90;;;19.60;54.20;;;;;;5022768;28;20075;-58
2021/11/28 12:58:03;;;;;;;3.63;1.70;;;19.60;54.20;;;;;;5020239;28;20120;-55
2021/11/28 13:00:30;;;;;;;3.38;1.65;;;19.60;54.20;;;;;;5021533;28;20032;-58
2021/11/28 13:03:01;;;;;;;3.67;1.85;;;19.60;54.20;;;;;;5025274;28;20651;-55